ARG1289 SBFL-SANT
Flight info
| Callsign | ARG1289 |
|---|---|
| Flight time | 2h 18m |
| Altitude | 36000 |
| Route | NESMI UZ75 ESNOG DCT POS UP779 SIS UZ120 ESLED DCT BITIS BITIS2M |
| Aircraft | B738/M-SDE2E3FGHIRWXY/LB1 |
Departure
| Time | 2026-04-17 14:40 |
|---|---|
| Airport | Hercílio Luz International Airport (SBFL) |
Arrival
| Time | 2026-04-17 16:58 |
|---|---|
| Airport | Teniente Benjamín Matienzo International Airport (SANT) |
| Time | Latitude | Longitude | Altitude | Speed | Heading |
|---|---|---|---|---|---|
| 2026-04-17 14:23 | -27.67320 | -48.54470 | 26 ft | 0 kts | 212° |
| 2026-04-17 14:34 | -27.67313 | -48.54465 | 30 ft | 4 kts | 208° |
| 2026-04-17 14:34 | -27.67290 | -48.54455 | 30 ft | 4 kts | 173° |
| 2026-04-17 14:34 | -27.67272 | -48.54465 | 32 ft | 1 kts | 121° |
| 2026-04-17 14:36 | -27.67273 | -48.54464 | 31 ft | 1 kts | 121° |
| 2026-04-17 14:36 | -27.67282 | -48.54446 | 29 ft | 5 kts | 122° |
| 2026-04-17 14:36 | -27.67288 | -48.54381 | 30 ft | 13 kts | 44° |
| 2026-04-17 14:37 | -27.67210 | -48.54311 | 27 ft | 15 kts | 74° |
| 2026-04-17 14:37 | -27.67257 | -48.54205 | 28 ft | 16 kts | 121° |
| 2026-04-17 14:37 | -27.67320 | -48.54087 | 28 ft | 19 kts | 121° |
| 2026-04-17 14:37 | -27.67395 | -48.53948 | 29 ft | 22 kts | 121° |
| 2026-04-17 14:38 | -27.67480 | -48.53791 | 28 ft | 25 kts | 123° |
| 2026-04-17 14:38 | -27.67577 | -48.53617 | 26 ft | 27 kts | 122° |
| 2026-04-17 14:38 | -27.67682 | -48.53432 | 26 ft | 28 kts | 122° |
| 2026-04-17 14:38 | -27.67777 | -48.53261 | 27 ft | 23 kts | 122° |
| 2026-04-17 14:39 | -27.67775 | -48.53133 | 26 ft | 18 kts | 41° |
| 2026-04-17 14:39 | -27.67682 | -48.53072 | 26 ft | 13 kts | 340° |
| 2026-04-17 14:39 | -27.67587 | -48.53236 | 29 ft | 55 kts | 301° |
| 2026-04-17 14:39 | -27.67262 | -48.53839 | 23 ft | 123 kts | 301° |
| 2026-04-17 14:40 | -27.66718 | -48.54844 | 54 ft | 173 kts | 301° |
| 2026-04-17 14:40 | -27.66093 | -48.56013 | 825 ft | 175 kts | 303° |
| 2026-04-17 14:40 | -27.65460 | -48.57214 | 1616 ft | 188 kts | 303° |
| 2026-04-17 14:40 | -27.64734 | -48.58581 | 1964 ft | 218 kts | 302° |
| 2026-04-17 14:41 | -27.63891 | -48.60162 | 2276 ft | 250 kts | 302° |
| 2026-04-17 14:41 | -27.62993 | -48.61848 | 3274 ft | 248 kts | 301° |
| 2026-04-17 14:41 | -27.62101 | -48.63539 | 4211 ft | 253 kts | 300° |
| 2026-04-17 14:41 | -27.61176 | -48.65243 | 5173 ft | 255 kts | 299° |
| 2026-04-17 14:42 | -27.60236 | -48.66961 | 6100 ft | 258 kts | 299° |
| 2026-04-17 14:42 | -27.59295 | -48.68685 | 7012 ft | 260 kts | 299° |
| 2026-04-17 14:42 | -27.58338 | -48.70443 | 7838 ft | 266 kts | 300° |
| 2026-04-17 14:42 | -27.57365 | -48.72229 | 8751 ft | 268 kts | 299° |
| 2026-04-17 14:43 | -27.56382 | -48.74036 | 9562 ft | 275 kts | 299° |
| 2026-04-17 14:43 | -27.55369 | -48.75897 | 10247 ft | 284 kts | 299° |
| 2026-04-17 14:43 | -27.54291 | -48.77882 | 10468 ft | 311 kts | 299° |
| 2026-04-17 14:43 | -27.53118 | -48.80048 | 10651 ft | 336 kts | 297° |
| 2026-04-17 14:44 | -27.52333 | -48.82586 | 10853 ft | 353 kts | 278° |
| 2026-04-17 14:44 | -27.51952 | -48.85350 | 11362 ft | 361 kts | 278° |
| 2026-04-17 14:44 | -27.51543 | -48.88166 | 11971 ft | 366 kts | 278° |
| 2026-04-17 14:44 | -27.51117 | -48.90999 | 12718 ft | 367 kts | 278° |
| 2026-04-17 14:45 | -27.50686 | -48.93819 | 13274 ft | 374 kts | 278° |
| 2026-04-17 14:45 | -27.50238 | -48.96713 | 13911 ft | 376 kts | 278° |
| 2026-04-17 14:45 | -27.49785 | -48.99626 | 14471 ft | 379 kts | 278° |
| 2026-04-17 14:45 | -27.49328 | -49.02558 | 15042 ft | 381 kts | 278° |
| 2026-04-17 14:46 | -27.48868 | -49.05505 | 15634 ft | 383 kts | 278° |
| 2026-04-17 14:46 | -27.48403 | -49.08470 | 16231 ft | 385 kts | 278° |
| 2026-04-17 14:46 | -27.47938 | -49.11442 | 16872 ft | 385 kts | 278° |
| 2026-04-17 14:46 | -27.47470 | -49.14418 | 17494 ft | 387 kts | 278° |
| 2026-04-17 14:47 | -27.47001 | -49.17406 | 18068 ft | 389 kts | 278° |
| 2026-04-17 14:47 | -27.46528 | -49.20418 | 18558 ft | 392 kts | 278° |
| 2026-04-17 14:47 | -27.46051 | -49.23446 | 19019 ft | 394 kts | 279° |
| 2026-04-17 14:47 | -27.45569 | -49.26497 | 19531 ft | 396 kts | 279° |
| 2026-04-17 14:48 | -27.45086 | -49.29555 | 20044 ft | 397 kts | 279° |
| 2026-04-17 14:48 | -27.44601 | -49.32619 | 20538 ft | 398 kts | 279° |
| 2026-04-17 14:48 | -27.44114 | -49.35696 | 20977 ft | 400 kts | 279° |
| 2026-04-17 14:48 | -27.43624 | -49.38784 | 21384 ft | 402 kts | 279° |
| 2026-04-17 14:49 | -27.43130 | -49.41891 | 21810 ft | 404 kts | 279° |
| 2026-04-17 14:49 | -27.42633 | -49.45018 | 22244 ft | 407 kts | 279° |
| 2026-04-17 14:49 | -27.42133 | -49.48159 | 22660 ft | 409 kts | 279° |
| 2026-04-17 14:49 | -27.41628 | -49.51319 | 23087 ft | 411 kts | 279° |
| 2026-04-17 14:50 | -27.41190 | -49.54501 | 23495 ft | 413 kts | 277° |
| 2026-04-17 14:50 | -27.40848 | -49.57719 | 23822 ft | 414 kts | 276° |
| 2026-04-17 14:50 | -27.40538 | -49.60949 | 24137 ft | 416 kts | 275° |
| 2026-04-17 14:50 | -27.40231 | -49.64194 | 24451 ft | 418 kts | 275° |
| 2026-04-17 14:51 | -27.39914 | -49.67453 | 24773 ft | 419 kts | 276° |
| 2026-04-17 14:51 | -27.39586 | -49.70721 | 25082 ft | 421 kts | 276° |
| 2026-04-17 14:51 | -27.39249 | -49.74000 | 25385 ft | 423 kts | 276° |
| 2026-04-17 14:51 | -27.38907 | -49.77297 | 25689 ft | 425 kts | 276° |
| 2026-04-17 14:52 | -27.38560 | -49.80612 | 25983 ft | 427 kts | 276° |
| 2026-04-17 14:52 | -27.38210 | -49.83938 | 26280 ft | 429 kts | 276° |
| 2026-04-17 14:52 | -27.37860 | -49.87270 | 26569 ft | 430 kts | 276° |
| 2026-04-17 14:52 | -27.37506 | -49.90623 | 26861 ft | 432 kts | 276° |
| 2026-04-17 14:53 | -27.37152 | -49.93988 | 27123 ft | 434 kts | 276° |
| 2026-04-17 14:53 | -27.36794 | -49.97369 | 27395 ft | 436 kts | 276° |
| 2026-04-17 14:53 | -27.36441 | -50.00764 | 27628 ft | 438 kts | 274° |
| 2026-04-17 14:53 | -27.36415 | -50.04150 | 27855 ft | 440 kts | 265° |
| 2026-04-17 14:54 | -27.36720 | -50.07623 | 28167 ft | 440 kts | 263° |
| 2026-04-17 14:54 | -27.37070 | -50.10988 | 28553 ft | 438 kts | 263° |
| 2026-04-17 14:54 | -27.37424 | -50.14384 | 28981 ft | 436 kts | 263° |
| 2026-04-17 14:54 | -27.37760 | -50.17770 | 29399 ft | 435 kts | 264° |
| 2026-04-17 14:55 | -27.38076 | -50.21148 | 29765 ft | 435 kts | 264° |
| 2026-04-17 14:55 | -27.38378 | -50.24535 | 30083 ft | 435 kts | 264° |
| 2026-04-17 14:55 | -27.38672 | -50.27918 | 30424 ft | 434 kts | 264° |
| 2026-04-17 14:55 | -27.38961 | -50.31291 | 30829 ft | 432 kts | 264° |
| 2026-04-17 14:56 | -27.39247 | -50.34646 | 31231 ft | 429 kts | 264° |
| 2026-04-17 14:56 | -27.39531 | -50.37986 | 31561 ft | 429 kts | 264° |
| 2026-04-17 14:56 | -27.39815 | -50.41330 | 31859 ft | 429 kts | 264° |
| 2026-04-17 14:56 | -27.40098 | -50.44665 | 32202 ft | 428 kts | 264° |
| 2026-04-17 14:57 | -27.40380 | -50.47992 | 32553 ft | 427 kts | 264° |
| 2026-04-17 14:57 | -27.40661 | -50.51314 | 32880 ft | 426 kts | 264° |
| 2026-04-17 14:57 | -27.40941 | -50.54632 | 33213 ft | 425 kts | 264° |
| 2026-04-17 14:57 | -27.41219 | -50.57943 | 33553 ft | 424 kts | 265° |
| 2026-04-17 14:58 | -27.41494 | -50.61246 | 33872 ft | 423 kts | 265° |
| 2026-04-17 14:58 | -27.41483 | -50.64553 | 34141 ft | 423 kts | 276° |
| 2026-04-17 14:58 | -27.41044 | -50.67823 | 34418 ft | 423 kts | 278° |
| 2026-04-17 14:58 | -27.40555 | -50.71088 | 34649 ft | 423 kts | 278° |
| 2026-04-17 14:59 | -27.40078 | -50.74357 | 34876 ft | 423 kts | 277° |
| 2026-04-17 14:59 | -27.39631 | -50.77620 | 35164 ft | 422 kts | 277° |
| 2026-04-17 14:59 | -27.39202 | -50.80880 | 35442 ft | 420 kts | 277° |
| 2026-04-17 14:59 | -27.38778 | -50.84134 | 35684 ft | 420 kts | 277° |
| 2026-04-17 15:00 | -27.38352 | -50.87387 | 35896 ft | 420 kts | 277° |
| 2026-04-17 15:00 | -27.37921 | -50.90649 | 35913 ft | 423 kts | 277° |
| 2026-04-17 15:00 | -27.37056 | -50.97145 | 35917 ft | 420 kts | 277° |
| 2026-04-17 15:01 | -27.36192 | -51.03621 | 35924 ft | 417 kts | 277° |
| 2026-04-17 15:01 | -27.35331 | -51.10060 | 35924 ft | 415 kts | 277° |
| 2026-04-17 15:02 | -27.34470 | -51.16477 | 35927 ft | 414 kts | 277° |
| 2026-04-17 15:02 | -27.33609 | -51.22876 | 35931 ft | 414 kts | 277° |
| 2026-04-17 15:03 | -27.32745 | -51.29289 | 35929 ft | 415 kts | 277° |
| 2026-04-17 15:03 | -27.31879 | -51.35717 | 35937 ft | 417 kts | 277° |
| 2026-04-17 15:04 | -27.31004 | -51.42189 | 35930 ft | 419 kts | 277° |
| 2026-04-17 15:04 | -27.30121 | -51.48688 | 35912 ft | 421 kts | 277° |
| 2026-04-17 15:05 | -27.29239 | -51.55164 | 35920 ft | 422 kts | 277° |
| 2026-04-17 15:05 | -27.28346 | -51.61697 | 35923 ft | 423 kts | 276° |
| 2026-04-17 15:06 | -27.27446 | -51.68246 | 35924 ft | 424 kts | 277° |
| 2026-04-17 15:06 | -27.26546 | -51.74787 | 35924 ft | 423 kts | 277° |
| 2026-04-17 15:07 | -27.25644 | -51.81317 | 35931 ft | 423 kts | 276° |
| 2026-04-17 15:07 | -27.24740 | -51.87838 | 35930 ft | 422 kts | 277° |
| 2026-04-17 15:08 | -27.23832 | -51.94360 | 35924 ft | 422 kts | 277° |
| 2026-04-17 15:08 | -27.22931 | -52.00821 | 35915 ft | 420 kts | 277° |
| 2026-04-17 15:09 | -27.22021 | -52.07303 | 35926 ft | 419 kts | 277° |
| 2026-04-17 15:09 | -27.21110 | -52.13768 | 35933 ft | 418 kts | 277° |
| 2026-04-17 15:10 | -27.20198 | -52.20218 | 35936 ft | 418 kts | 277° |
| 2026-04-17 15:11 | -27.18827 | -52.29886 | 35935 ft | 418 kts | 277° |
| 2026-04-17 15:11 | -27.18063 | -52.35247 | 35936 ft | 418 kts | 277° |
| 2026-04-17 15:12 | -27.17141 | -52.41708 | 35940 ft | 419 kts | 277° |
| 2026-04-17 15:12 | -27.16213 | -52.48178 | 35940 ft | 420 kts | 277° |
| 2026-04-17 15:13 | -27.15282 | -52.54651 | 36004 ft | 420 kts | 277° |
| 2026-04-17 15:13 | -27.14349 | -52.61125 | 36028 ft | 420 kts | 277° |
| 2026-04-17 15:14 | -27.13704 | -52.67617 | 36022 ft | 417 kts | 268° |
| 2026-04-17 15:14 | -27.14228 | -52.74100 | 36017 ft | 417 kts | 263° |
| 2026-04-17 15:15 | -27.14823 | -52.80569 | 36005 ft | 417 kts | 263° |
| 2026-04-17 15:15 | -27.15397 | -52.87053 | 35988 ft | 417 kts | 263° |
| 2026-04-17 15:16 | -27.15958 | -52.93540 | 35974 ft | 417 kts | 263° |
| 2026-04-17 15:16 | -27.16507 | -52.99982 | 35943 ft | 417 kts | 263° |
| 2026-04-17 15:17 | -27.17058 | -53.06470 | 35929 ft | 418 kts | 263° |
| 2026-04-17 15:17 | -27.17606 | -53.12964 | 35926 ft | 418 kts | 263° |
| 2026-04-17 15:18 | -27.18152 | -53.19472 | 35917 ft | 418 kts | 263° |
| 2026-04-17 15:18 | -27.18694 | -53.25969 | 35946 ft | 418 kts | 263° |
| 2026-04-17 15:19 | -27.19234 | -53.32478 | 35926 ft | 418 kts | 263° |
| 2026-04-17 15:19 | -27.19772 | -53.38984 | 35930 ft | 418 kts | 263° |
| 2026-04-17 15:20 | -27.20305 | -53.45486 | 35927 ft | 418 kts | 263° |
| 2026-04-17 15:20 | -27.20836 | -53.51987 | 35923 ft | 418 kts | 263° |
| 2026-04-17 15:21 | -27.21364 | -53.58494 | 35926 ft | 418 kts | 263° |
| 2026-04-17 15:21 | -27.21885 | -53.64959 | 35922 ft | 418 kts | 263° |
| 2026-04-17 15:22 | -27.22408 | -53.71475 | 35924 ft | 419 kts | 263° |
| 2026-04-17 15:22 | -27.22927 | -53.77988 | 35929 ft | 418 kts | 263° |
| 2026-04-17 15:23 | -27.23443 | -53.84502 | 35923 ft | 418 kts | 263° |
| 2026-04-17 15:23 | -27.23956 | -53.91016 | 35925 ft | 418 kts | 264° |
| 2026-04-17 15:24 | -27.24466 | -53.97529 | 35920 ft | 418 kts | 264° |
| 2026-04-17 15:24 | -27.24973 | -54.04037 | 35920 ft | 418 kts | 263° |
| 2026-04-17 15:25 | -27.25477 | -54.10553 | 35917 ft | 418 kts | 263° |
| 2026-04-17 15:25 | -27.25978 | -54.17067 | 35922 ft | 419 kts | 263° |
| 2026-04-17 15:26 | -27.26476 | -54.23589 | 35910 ft | 419 kts | 264° |
| 2026-04-17 15:26 | -27.26971 | -54.30100 | 35920 ft | 418 kts | 264° |
| 2026-04-17 15:27 | -27.27460 | -54.36579 | 35911 ft | 419 kts | 264° |
| 2026-04-17 15:27 | -27.27950 | -54.43106 | 35922 ft | 419 kts | 264° |
| 2026-04-17 15:28 | -27.28436 | -54.49623 | 35912 ft | 419 kts | 264° |
| 2026-04-17 15:28 | -27.28919 | -54.56149 | 35910 ft | 419 kts | 264° |
| 2026-04-17 15:29 | -27.29399 | -54.62667 | 35906 ft | 418 kts | 264° |
| 2026-04-17 15:29 | -27.29876 | -54.69190 | 35918 ft | 418 kts | 264° |
| 2026-04-17 15:30 | -27.30350 | -54.75708 | 35909 ft | 418 kts | 264° |
| 2026-04-17 15:30 | -27.30821 | -54.82229 | 35924 ft | 418 kts | 264° |
| 2026-04-17 15:31 | -27.31289 | -54.88754 | 35909 ft | 419 kts | 264° |
| 2026-04-17 15:31 | -27.31754 | -54.95280 | 35925 ft | 419 kts | 264° |
| 2026-04-17 15:32 | -27.32213 | -55.01769 | 35915 ft | 419 kts | 264° |
| 2026-04-17 15:32 | -27.32673 | -55.08304 | 35917 ft | 419 kts | 264° |
| 2026-04-17 15:33 | -27.33130 | -55.14845 | 35912 ft | 419 kts | 264° |
| 2026-04-17 15:33 | -27.33583 | -55.21376 | 35916 ft | 419 kts | 264° |
| 2026-04-17 15:34 | -27.34033 | -55.27912 | 35916 ft | 419 kts | 264° |
| 2026-04-17 15:34 | -27.34481 | -55.34446 | 35918 ft | 419 kts | 264° |
| 2026-04-17 15:35 | -27.34925 | -55.40985 | 35919 ft | 419 kts | 264° |
| 2026-04-17 15:35 | -27.35366 | -55.47524 | 35912 ft | 419 kts | 264° |
| 2026-04-17 15:36 | -27.35804 | -55.54057 | 35906 ft | 419 kts | 264° |
| 2026-04-17 15:36 | -27.36236 | -55.60544 | 35913 ft | 418 kts | 264° |
| 2026-04-17 15:37 | -27.36667 | -55.67072 | 35908 ft | 418 kts | 264° |
| 2026-04-17 15:37 | -27.37096 | -55.73595 | 35906 ft | 418 kts | 264° |
| 2026-04-17 15:38 | -27.37521 | -55.80126 | 35953 ft | 418 kts | 264° |
| 2026-04-17 15:38 | -27.37943 | -55.86646 | 35966 ft | 418 kts | 264° |
| 2026-04-17 15:39 | -27.38362 | -55.93167 | 35970 ft | 418 kts | 264° |
| 2026-04-17 15:39 | -27.38745 | -55.99695 | 35966 ft | 418 kts | 266° |
| 2026-04-17 15:40 | -27.38954 | -56.06244 | 35966 ft | 419 kts | 267° |
| 2026-04-17 15:40 | -27.39129 | -56.12754 | 35960 ft | 419 kts | 266° |
| 2026-04-17 15:41 | -27.39320 | -56.19348 | 35946 ft | 419 kts | 266° |
| 2026-04-17 15:41 | -27.39517 | -56.25859 | 35915 ft | 419 kts | 266° |
| 2026-04-17 15:42 | -27.39716 | -56.32409 | 35907 ft | 419 kts | 266° |
| 2026-04-17 15:42 | -27.39913 | -56.38962 | 35907 ft | 419 kts | 266° |
| 2026-04-17 15:43 | -27.40107 | -56.45519 | 35910 ft | 419 kts | 266° |
| 2026-04-17 15:43 | -27.40297 | -56.52074 | 35910 ft | 419 kts | 266° |
| 2026-04-17 15:44 | -27.40484 | -56.58631 | 35913 ft | 419 kts | 267° |
| 2026-04-17 15:44 | -27.40668 | -56.65186 | 35913 ft | 419 kts | 267° |
| 2026-04-17 15:45 | -27.40849 | -56.71733 | 35911 ft | 419 kts | 267° |
| 2026-04-17 15:45 | -27.41027 | -56.78281 | 35900 ft | 418 kts | 267° |
| 2026-04-17 15:46 | -27.41202 | -56.84822 | 35917 ft | 418 kts | 267° |
| 2026-04-17 15:46 | -27.41373 | -56.91367 | 35915 ft | 418 kts | 267° |
| 2026-04-17 15:47 | -27.41542 | -56.97911 | 35919 ft | 418 kts | 267° |
| 2026-04-17 15:47 | -27.41707 | -57.04450 | 35918 ft | 418 kts | 267° |
| 2026-04-17 15:48 | -27.41870 | -57.10996 | 35916 ft | 418 kts | 267° |
| 2026-04-17 15:48 | -27.42028 | -57.17504 | 35919 ft | 418 kts | 267° |
| 2026-04-17 15:49 | -27.42184 | -57.24047 | 35917 ft | 418 kts | 267° |
| 2026-04-17 15:49 | -27.42338 | -57.30592 | 35920 ft | 418 kts | 267° |
| 2026-04-17 15:50 | -27.42488 | -57.37132 | 35924 ft | 418 kts | 267° |
| 2026-04-17 15:50 | -27.42635 | -57.43670 | 35923 ft | 418 kts | 267° |
| 2026-04-17 15:51 | -27.42779 | -57.50197 | 35924 ft | 417 kts | 267° |
| 2026-04-17 15:51 | -27.42918 | -57.56726 | 35925 ft | 417 kts | 268° |
| 2026-04-17 15:52 | -27.43004 | -57.63259 | 35932 ft | 417 kts | 268° |
| 2026-04-17 15:52 | -27.43070 | -57.69782 | 35930 ft | 416 kts | 268° |
| 2026-04-17 15:53 | -27.43139 | -57.76301 | 35930 ft | 416 kts | 268° |
| 2026-04-17 15:53 | -27.43207 | -57.82776 | 35914 ft | 416 kts | 268° |
| 2026-04-17 15:54 | -27.43274 | -57.89287 | 35928 ft | 416 kts | 268° |
| 2026-04-17 15:54 | -27.43339 | -57.95792 | 35941 ft | 415 kts | 268° |
| 2026-04-17 15:55 | -27.43399 | -58.02300 | 35932 ft | 416 kts | 268° |
| 2026-04-17 15:55 | -27.43489 | -58.08809 | 35935 ft | 416 kts | 268° |
| 2026-04-17 15:56 | -27.43597 | -58.15323 | 35941 ft | 416 kts | 268° |
| 2026-04-17 15:56 | -27.43701 | -58.21833 | 35941 ft | 416 kts | 268° |
| 2026-04-17 15:57 | -27.43797 | -58.28342 | 35934 ft | 416 kts | 268° |
| 2026-04-17 15:57 | -27.43890 | -58.34854 | 35935 ft | 416 kts | 268° |
| 2026-04-17 15:58 | -27.43979 | -58.41360 | 35939 ft | 416 kts | 268° |
| 2026-04-17 15:58 | -27.44065 | -58.47829 | 35939 ft | 416 kts | 268° |
| 2026-04-17 15:59 | -27.44148 | -58.54333 | 35938 ft | 415 kts | 268° |
| 2026-04-17 15:59 | -27.44228 | -58.60832 | 35939 ft | 415 kts | 268° |
| 2026-04-17 16:00 | -27.44293 | -58.66270 | 35936 ft | 414 kts | 268° |
| 2026-04-17 16:00 | -27.44367 | -58.72705 | 35941 ft | 414 kts | 268° |
| 2026-04-17 16:01 | -27.44438 | -58.79180 | 35943 ft | 414 kts | 268° |
| 2026-04-17 16:01 | -27.44507 | -58.85658 | 35939 ft | 413 kts | 268° |
| 2026-04-17 16:02 | -27.44572 | -58.92125 | 35939 ft | 413 kts | 268° |
| 2026-04-17 16:02 | -27.44635 | -58.98593 | 35938 ft | 413 kts | 268° |
| 2026-04-17 16:03 | -27.44693 | -59.05062 | 35949 ft | 413 kts | 269° |
| 2026-04-17 16:03 | -27.44355 | -59.11518 | 35942 ft | 414 kts | 274° |
| 2026-04-17 16:04 | -27.43804 | -59.17959 | 35937 ft | 414 kts | 274° |
| 2026-04-17 16:04 | -27.43258 | -59.24409 | 35935 ft | 413 kts | 274° |
| 2026-04-17 16:05 | -27.42736 | -59.30852 | 35940 ft | 413 kts | 274° |
| 2026-04-17 16:05 | -27.42223 | -59.37290 | 35939 ft | 413 kts | 273° |
| 2026-04-17 16:06 | -27.41711 | -59.43722 | 35937 ft | 413 kts | 273° |
| 2026-04-17 16:06 | -27.41196 | -59.50152 | 35937 ft | 412 kts | 274° |
| 2026-04-17 16:07 | -27.40682 | -59.56530 | 35936 ft | 412 kts | 274° |
| 2026-04-17 16:07 | -27.40161 | -59.62953 | 35943 ft | 412 kts | 274° |
| 2026-04-17 16:08 | -27.39638 | -59.69372 | 35936 ft | 411 kts | 274° |
| 2026-04-17 16:08 | -27.39112 | -59.75785 | 35924 ft | 411 kts | 274° |
| 2026-04-17 16:09 | -27.38584 | -59.82182 | 35933 ft | 411 kts | 274° |
| 2026-04-17 16:09 | -27.38054 | -59.88581 | 35937 ft | 411 kts | 274° |
| 2026-04-17 16:10 | -27.37519 | -59.94987 | 35940 ft | 411 kts | 274° |
| 2026-04-17 16:10 | -27.36983 | -60.01384 | 35938 ft | 411 kts | 274° |
| 2026-04-17 16:11 | -27.36447 | -60.07742 | 35937 ft | 411 kts | 274° |
| 2026-04-17 16:11 | -27.35904 | -60.14139 | 35938 ft | 411 kts | 274° |
| 2026-04-17 16:12 | -27.35359 | -60.20532 | 35937 ft | 411 kts | 274° |
| 2026-04-17 16:12 | -27.34811 | -60.26925 | 35934 ft | 410 kts | 274° |
| 2026-04-17 16:13 | -27.34261 | -60.33313 | 35935 ft | 410 kts | 274° |
| 2026-04-17 16:13 | -27.33708 | -60.39696 | 35936 ft | 410 kts | 274° |
| 2026-04-17 16:14 | -27.32874 | -60.49255 | 35937 ft | 409 kts | 274° |
| 2026-04-17 16:14 | -27.32315 | -60.55622 | 35912 ft | 409 kts | 274° |
| 2026-04-17 16:15 | -27.31754 | -60.61982 | 35922 ft | 409 kts | 274° |
| 2026-04-17 16:15 | -27.31189 | -60.68344 | 35937 ft | 409 kts | 274° |
| 2026-04-17 16:16 | -27.30623 | -60.74701 | 35938 ft | 409 kts | 274° |
| 2026-04-17 16:16 | -27.30052 | -60.81066 | 35935 ft | 409 kts | 274° |
| 2026-04-17 16:17 | -27.29479 | -60.87431 | 35931 ft | 410 kts | 274° |
| 2026-04-17 16:17 | -27.28901 | -60.93809 | 35934 ft | 410 kts | 274° |
| 2026-04-17 16:18 | -27.28325 | -61.00147 | 35933 ft | 410 kts | 274° |
| 2026-04-17 16:18 | -27.27751 | -61.06528 | 35928 ft | 410 kts | 273° |
| 2026-04-17 16:19 | -27.27274 | -61.12925 | 35933 ft | 410 kts | 272° |
| 2026-04-17 16:19 | -27.26817 | -61.19323 | 35926 ft | 411 kts | 272° |
| 2026-04-17 16:20 | -27.26347 | -61.25727 | 35931 ft | 411 kts | 273° |
| 2026-04-17 16:20 | -27.25867 | -61.32139 | 35925 ft | 412 kts | 273° |
| 2026-04-17 16:21 | -27.25382 | -61.38555 | 35930 ft | 412 kts | 273° |
| 2026-04-17 16:21 | -27.24895 | -61.44971 | 35920 ft | 412 kts | 272° |
| 2026-04-17 16:22 | -27.24419 | -61.51396 | 35931 ft | 412 kts | 272° |
| 2026-04-17 16:22 | -27.24106 | -61.57778 | 35930 ft | 412 kts | 271° |
| 2026-04-17 16:23 | -27.23833 | -61.64213 | 35924 ft | 412 kts | 271° |
| 2026-04-17 16:23 | -27.23542 | -61.70655 | 35926 ft | 413 kts | 271° |
| 2026-04-17 16:24 | -27.23236 | -61.77094 | 35918 ft | 413 kts | 271° |
| 2026-04-17 16:24 | -27.22921 | -61.83533 | 35926 ft | 413 kts | 271° |
| 2026-04-17 16:25 | -27.22602 | -61.89972 | 35923 ft | 413 kts | 271° |
| 2026-04-17 16:25 | -27.22279 | -61.96424 | 35923 ft | 413 kts | 270° |
| 2026-04-17 16:26 | -27.21955 | -62.02863 | 35926 ft | 413 kts | 270° |
| 2026-04-17 16:26 | -27.21627 | -62.09297 | 35922 ft | 413 kts | 270° |
| 2026-04-17 16:27 | -27.21297 | -62.15736 | 35925 ft | 412 kts | 270° |
| 2026-04-17 16:27 | -27.20966 | -62.22126 | 35923 ft | 412 kts | 270° |
| 2026-04-17 16:28 | -27.20628 | -62.28593 | 35920 ft | 412 kts | 270° |
| 2026-04-17 16:28 | -27.20292 | -62.34972 | 35917 ft | 411 kts | 270° |
| 2026-04-17 16:29 | -27.19951 | -62.41382 | 35896 ft | 411 kts | 270° |
| 2026-04-17 16:29 | -27.19608 | -62.47786 | 35909 ft | 411 kts | 270° |
| 2026-04-17 16:30 | -27.19261 | -62.54203 | 35916 ft | 412 kts | 270° |
| 2026-04-17 16:30 | -27.18911 | -62.60632 | 35910 ft | 413 kts | 270° |
| 2026-04-17 16:31 | -27.18557 | -62.67072 | 35908 ft | 413 kts | 270° |
| 2026-04-17 16:31 | -27.18199 | -62.73523 | 35907 ft | 414 kts | 270° |
| 2026-04-17 16:32 | -27.17838 | -62.79984 | 35905 ft | 415 kts | 270° |
| 2026-04-17 16:32 | -27.17473 | -62.86451 | 35902 ft | 415 kts | 270° |
| 2026-04-17 16:33 | -27.17106 | -62.92918 | 35898 ft | 415 kts | 270° |
| 2026-04-17 16:33 | -27.16736 | -62.99381 | 35899 ft | 415 kts | 270° |
| 2026-04-17 16:34 | -27.16362 | -63.05842 | 35895 ft | 415 kts | 270° |
| 2026-04-17 16:34 | -27.15986 | -63.12305 | 35895 ft | 414 kts | 270° |
| 2026-04-17 16:35 | -27.15610 | -63.18715 | 35893 ft | 414 kts | 270° |
| 2026-04-17 16:35 | -27.15227 | -63.25203 | 35230 ft | 420 kts | 270° |
| 2026-04-17 16:36 | -27.15033 | -63.28469 | 34554 ft | 419 kts | 269° |
| 2026-04-17 16:36 | -27.14837 | -63.31737 | 33879 ft | 420 kts | 269° |
| 2026-04-17 16:36 | -27.14641 | -63.35014 | 33063 ft | 421 kts | 269° |
| 2026-04-17 16:36 | -27.14444 | -63.38295 | 32283 ft | 422 kts | 269° |
| 2026-04-17 16:37 | -27.14246 | -63.41583 | 31485 ft | 423 kts | 269° |
| 2026-04-17 16:37 | -27.14046 | -63.44888 | 30695 ft | 425 kts | 269° |
| 2026-04-17 16:37 | -27.13844 | -63.48198 | 30053 ft | 423 kts | 269° |
| 2026-04-17 16:37 | -27.13642 | -63.51480 | 29358 ft | 420 kts | 269° |
| 2026-04-17 16:38 | -27.13441 | -63.54735 | 28741 ft | 415 kts | 270° |
| 2026-04-17 16:38 | -27.13241 | -63.57951 | 28165 ft | 410 kts | 270° |
| 2026-04-17 16:38 | -27.13044 | -63.61129 | 27577 ft | 406 kts | 270° |
| 2026-04-17 16:38 | -27.12849 | -63.64273 | 27011 ft | 402 kts | 270° |
| 2026-04-17 16:39 | -27.12655 | -63.67382 | 26456 ft | 398 kts | 270° |
| 2026-04-17 16:39 | -27.12463 | -63.70468 | 25905 ft | 394 kts | 271° |
| 2026-04-17 16:39 | -27.12271 | -63.73523 | 25362 ft | 391 kts | 271° |
| 2026-04-17 16:39 | -27.12081 | -63.76559 | 24810 ft | 388 kts | 271° |
| 2026-04-17 16:40 | -27.11891 | -63.79574 | 24259 ft | 386 kts | 271° |
| 2026-04-17 16:40 | -27.11701 | -63.82574 | 23708 ft | 385 kts | 271° |
| 2026-04-17 16:40 | -27.11512 | -63.85568 | 23107 ft | 383 kts | 271° |
| 2026-04-17 16:40 | -27.11322 | -63.88536 | 22516 ft | 380 kts | 272° |
| 2026-04-17 16:41 | -27.11134 | -63.91482 | 21957 ft | 377 kts | 272° |
| 2026-04-17 16:41 | -27.10946 | -63.94402 | 21416 ft | 374 kts | 272° |
| 2026-04-17 16:41 | -27.10759 | -63.97306 | 20883 ft | 371 kts | 272° |
| 2026-04-17 16:41 | -27.10573 | -64.00186 | 20360 ft | 369 kts | 272° |
| 2026-04-17 16:42 | -27.10388 | -64.03051 | 19841 ft | 367 kts | 272° |
| 2026-04-17 16:42 | -27.10202 | -64.05900 | 19320 ft | 365 kts | 272° |
| 2026-04-17 16:42 | -27.10018 | -64.08736 | 18791 ft | 364 kts | 273° |
| 2026-04-17 16:42 | -27.09835 | -64.11531 | 18275 ft | 363 kts | 273° |
| 2026-04-17 16:43 | -27.09650 | -64.14358 | 17687 ft | 363 kts | 273° |
| 2026-04-17 16:43 | -27.09464 | -64.17173 | 17151 ft | 361 kts | 273° |
| 2026-04-17 16:43 | -27.09279 | -64.19976 | 16624 ft | 359 kts | 273° |
| 2026-04-17 16:43 | -27.09095 | -64.22754 | 16112 ft | 356 kts | 273° |
| 2026-04-17 16:44 | -27.08911 | -64.25521 | 15604 ft | 355 kts | 274° |
| 2026-04-17 16:44 | -27.08728 | -64.28275 | 15101 ft | 353 kts | 274° |
| 2026-04-17 16:44 | -27.08545 | -64.31019 | 14576 ft | 353 kts | 274° |
| 2026-04-17 16:44 | -27.08361 | -64.33753 | 14073 ft | 352 kts | 274° |
| 2026-04-17 16:45 | -27.08177 | -64.36492 | 13541 ft | 351 kts | 274° |
| 2026-04-17 16:45 | -27.07993 | -64.39218 | 12999 ft | 350 kts | 274° |
| 2026-04-17 16:45 | -27.07809 | -64.41934 | 12484 ft | 348 kts | 274° |
| 2026-04-17 16:45 | -27.07626 | -64.44633 | 11981 ft | 346 kts | 274° |
| 2026-04-17 16:46 | -27.07505 | -64.46417 | 11641 ft | 345 kts | 274° |
| 2026-04-17 16:46 | -27.07323 | -64.49099 | 11137 ft | 344 kts | 274° |
| 2026-04-17 16:46 | -27.07140 | -64.51770 | 10761 ft | 340 kts | 274° |
| 2026-04-17 16:46 | -27.06961 | -64.54374 | 10558 ft | 330 kts | 274° |
| 2026-04-17 16:47 | -27.06788 | -64.56898 | 10422 ft | 319 kts | 274° |
| 2026-04-17 16:47 | -27.06619 | -64.59343 | 10282 ft | 309 kts | 274° |
| 2026-04-17 16:47 | -27.06456 | -64.61714 | 10154 ft | 300 kts | 274° |
| 2026-04-17 16:47 | -27.06297 | -64.64011 | 10027 ft | 291 kts | 274° |
| 2026-04-17 16:48 | -27.06142 | -64.66244 | 9898 ft | 283 kts | 274° |
| 2026-04-17 16:48 | -27.05990 | -64.68433 | 9629 ft | 281 kts | 274° |
| 2026-04-17 16:48 | -27.05838 | -64.70616 | 9324 ft | 280 kts | 275° |
| 2026-04-17 16:48 | -27.05687 | -64.72786 | 9035 ft | 278 kts | 275° |
| 2026-04-17 16:49 | -27.05536 | -64.74948 | 8746 ft | 277 kts | 275° |
| 2026-04-17 16:49 | -27.05385 | -64.77099 | 8450 ft | 276 kts | 276° |
| 2026-04-17 16:49 | -27.05234 | -64.79240 | 8167 ft | 275 kts | 276° |
| 2026-04-17 16:49 | -27.05085 | -64.81371 | 7874 ft | 273 kts | 277° |
| 2026-04-17 16:50 | -27.04934 | -64.83496 | 7590 ft | 272 kts | 277° |
| 2026-04-17 16:50 | -27.04787 | -64.85582 | 7306 ft | 272 kts | 276° |
| 2026-04-17 16:50 | -27.04637 | -64.87688 | 7032 ft | 270 kts | 277° |
| 2026-04-17 16:50 | -27.04488 | -64.89788 | 6758 ft | 270 kts | 277° |
| 2026-04-17 16:51 | -27.04339 | -64.91883 | 6477 ft | 269 kts | 278° |
| 2026-04-17 16:51 | -27.04191 | -64.93968 | 6225 ft | 267 kts | 278° |
| 2026-04-17 16:51 | -27.04044 | -64.96028 | 6057 ft | 261 kts | 278° |
| 2026-04-17 16:51 | -27.03901 | -64.98031 | 5934 ft | 254 kts | 277° |
| 2026-04-17 16:52 | -27.03762 | -64.99974 | 5821 ft | 246 kts | 277° |
| 2026-04-17 16:52 | -27.03626 | -65.01858 | 5716 ft | 239 kts | 277° |
| 2026-04-17 16:52 | -27.03458 | -65.03678 | 5651 ft | 229 kts | 282° |
| 2026-04-17 16:52 | -27.03193 | -65.05398 | 5521 ft | 221 kts | 283° |
| 2026-04-17 16:53 | -27.02924 | -65.07069 | 5311 ft | 214 kts | 282° |
| 2026-04-17 16:53 | -27.02667 | -65.08688 | 5098 ft | 207 kts | 282° |
| 2026-04-17 16:53 | -27.02422 | -65.10256 | 4865 ft | 201 kts | 282° |
| 2026-04-17 16:53 | -27.02183 | -65.11780 | 4653 ft | 196 kts | 283° |
| 2026-04-17 16:54 | -27.01618 | -65.13100 | 4404 ft | 186 kts | 321° |
| 2026-04-17 16:54 | -27.00472 | -65.13530 | 4225 ft | 172 kts | 6° |
| 2026-04-17 16:54 | -26.99282 | -65.13384 | 4164 ft | 173 kts | 5° |
| 2026-04-17 16:54 | -26.98071 | -65.13228 | 3936 ft | 175 kts | 9° |
| 2026-04-17 16:55 | -26.96870 | -65.13010 | 3726 ft | 174 kts | 10° |
| 2026-04-17 16:55 | -26.95688 | -65.12778 | 3499 ft | 171 kts | 10° |
| 2026-04-17 16:55 | -26.94523 | -65.12549 | 3280 ft | 169 kts | 11° |
| 2026-04-17 16:55 | -26.93375 | -65.12322 | 3078 ft | 168 kts | 11° |
| 2026-04-17 16:56 | -26.92240 | -65.12096 | 2866 ft | 165 kts | 12° |
| 2026-04-17 16:56 | -26.91140 | -65.11879 | 2693 ft | 154 kts | 12° |
| 2026-04-17 16:56 | -26.90080 | -65.11671 | 2485 ft | 155 kts | 11° |
| 2026-04-17 16:56 | -26.89018 | -65.11461 | 2276 ft | 155 kts | 11° |
| 2026-04-17 16:57 | -26.87954 | -65.11251 | 2061 ft | 154 kts | 9° |
| 2026-04-17 16:57 | -26.86897 | -65.11043 | 1846 ft | 154 kts | 12° |
| 2026-04-17 16:57 | -26.85846 | -65.10833 | 1638 ft | 153 kts | 12° |
| 2026-04-17 16:57 | -26.84812 | -65.10628 | 1488 ft | 144 kts | 12° |
| 2026-04-17 16:58 | -26.83979 | -65.10463 | 1485 ft | 92 kts | 10° |
| 2026-04-17 16:58 | -26.83555 | -65.10384 | 1484 ft | 34 kts | 359° |
| 2026-04-17 16:58 | -26.83399 | -65.10422 | 1490 ft | 21 kts | 344° |
| 2026-04-17 16:58 | -26.83332 | -65.10467 | 1492 ft | 10 kts | 307° |
| 2026-04-17 16:59 | -26.83332 | -65.10541 | 1486 ft | 10 kts | 241° |
| 2026-04-17 16:59 | -26.83381 | -65.10595 | 1491 ft | 10 kts | 219° |
| 2026-04-17 16:59 | -26.83441 | -65.10651 | 1491 ft | 12 kts | 220° |
| 2026-04-17 16:59 | -26.83514 | -65.10690 | 1478 ft | 9 kts | 188° |
| 2026-04-17 17:00 | -26.83535 | -65.10709 | 1491 ft | 3 kts | 274° |
| 2026-04-17 17:00 | -26.83529 | -65.10744 | 1491 ft | 3 kts | 279° |
| 2026-04-17 17:00 | -26.83528 | -65.10753 | 1491 ft | 0 kts | 280° |